Time;durP1;ratioP1;P1;durP2;ratioP2;P2;SDS_P1;SDS_P2;PMS_P1;PMS_P2;Temp;Humidity;BMP_temperature;BMP_pressure;BME280_temperature;BME280_humidity;BME280_pressure;Samples;Min_cycle;Max_cycle;Signal;HPM_P1;HPM_P2
2024/01/03 00:00:43;;;;;;;19.85;1.98;;;9.90;99.90;;;;;;4981043;28;20392;-80
2024/01/03 00:03:09;;;;;;;22.40;3.33;;;9.90;99.90;;;;;;4981480;28;20043;-80
2024/01/03 00:05:37;;;;;;;19.33;2.20;;;10.00;99.90;;;;;;4996616;28;20473;-81
2024/01/03 00:08:05;;;;;;;25.17;2.92;;;10.00;99.90;;;;;;4964660;28;20516;-77
2024/01/03 00:10:42;;;;;;;24.42;3.25;;;10.00;99.90;;;;;;4979757;28;20054;-82
2024/01/03 00:13:37;;;;;;;25.33;2.65;;;10.00;99.90;;;;;;4979387;28;20034;-80
2024/01/03 00:16:09;;;;;;;25.73;4.10;;;10.00;99.90;;;;;;4988146;28;20087;-82
2024/01/03 00:18:41;;;;;;;32.42;6.47;;;10.00;99.90;;;;;;4978877;28;20038;-81
2024/01/03 00:21:09;;;;;;;31.48;8.40;;;10.00;99.90;;;;;;4995553;28;20038;-79
2024/01/03 00:23:44;;;;;;;26.52;7.35;;;10.00;99.90;;;;;;4978936;28;20050;-80
2024/01/03 00:26:10;;;;;;;25.33;5.88;;;10.00;99.90;;;;;;4945984;28;20042;-78
2024/01/03 00:28:40;;;;;;;26.30;5.60;;;10.00;99.90;;;;;;4979523;28;20034;-82
2024/01/03 00:31:28;;;;;;;21.05;6.28;;;10.00;99.90;;;;;;4979881;28;20034;-81
2024/01/03 00:33:56;;;;;;;21.77;3.60;;;10.10;99.90;;;;;;4977912;28;20054;-82
2024/01/03 00:36:22;;;;;;;33.42;6.45;;;10.10;99.90;;;;;;4964082;28;20045;-79
2024/01/03 00:38:49;;;;;;;30.67;9.10;;;10.20;99.90;;;;;;4978319;28;20045;-80
2024/01/03 00:41:15;;;;;;;29.00;7.22;;;10.20;99.90;;;;;;4980782;28;20049;-76
2024/01/03 00:43:42;;;;;;;26.98;5.45;;;10.20;99.90;;;;;;4979362;28;20042;-79
2024/01/03 00:46:08;;;;;;;28.13;4.40;;;10.30;99.90;;;;;;4979121;28;20053;-79
2024/01/03 00:48:35;;;;;;;20.80;3.65;;;10.20;99.90;;;;;;4979886;28;20030;-77
2024/01/03 00:51:04;;;;;;;23.63;3.95;;;10.20;99.90;;;;;;4979999;28;20031;-79
2024/01/03 00:53:32;;;;;;;22.20;3.88;;;10.30;99.90;;;;;;4978815;28;20041;-77
2024/01/03 00:55:59;;;;;;;19.45;2.95;;;10.30;99.90;;;;;;4978895;28;20793;-80
2024/01/03 00:58:25;;;;;;;21.83;2.97;;;10.30;99.90;;;;;;4978001;28;20034;-79
2024/01/03 01:00:52;;;;;;;22.52;3.08;;;10.30;99.90;;;;;;4965220;28;20034;-79
2024/01/03 01:03:18;;;;;;;22.42;2.35;;;10.30;99.90;;;;;;4962363;28;20042;-78
2024/01/03 01:05:45;;;;;;;22.58;2.67;;;10.30;99.90;;;;;;4977867;28;20038;-81
2024/01/03 01:08:11;;;;;;;22.15;2.83;;;10.30;99.90;;;;;;4962475;28;20041;-79
2024/01/03 01:10:37;;;;;;;17.02;2.13;;;10.30;99.90;;;;;;4963990;28;20362;-79
2024/01/03 01:13:04;;;;;;;23.83;2.72;;;10.30;99.90;;;;;;4979639;28;20038;-79
2024/01/03 01:15:30;;;;;;;25.52;3.50;;;10.30;99.90;;;;;;4977866;28;20035;-80
2024/01/03 01:17:57;;;;;;;20.75;3.03;;;10.30;99.90;;;;;;4962583;28;20031;-80
2024/01/03 01:20:23;;;;;;;22.48;2.58;;;10.20;99.90;;;;;;4961756;28;20038;-78
2024/01/03 01:22:49;;;;;;;17.98;2.25;;;10.20;99.90;;;;;;4962919;28;20039;-79
2024/01/03 01:25:17;;;;;;;21.38;3.08;;;10.30;99.90;;;;;;4962502;28;20038;-80
2024/01/03 01:27:43;;;;;;;19.42;2.30;;;10.20;99.90;;;;;;4981109;28;20053;-80
2024/01/03 01:30:10;;;;;;;21.23;3.22;;;10.20;99.90;;;;;;4979604;28;20038;-81
2024/01/03 01:32:36;;;;;;;22.00;3.35;;;10.20;99.90;;;;;;4962374;28;20038;-80
2024/01/03 01:35:03;;;;;;;27.85;4.47;;;10.20;99.90;;;;;;4980452;28;20038;-79
2024/01/03 01:37:29;;;;;;;29.13;3.45;;;10.20;99.90;;;;;;4995059;28;20030;-77
2024/01/03 01:39:55;;;;;;;23.85;3.95;;;10.20;99.90;;;;;;4960492;28;20043;-78
2024/01/03 01:42:22;;;;;;;27.33;3.47;;;10.20;99.90;;;;;;4977073;28;20049;-79
2024/01/03 01:44:49;;;;;;;22.63;3.10;;;10.30;99.90;;;;;;4978797;28;20062;-79
2024/01/03 01:47:15;;;;;;;27.17;4.03;;;10.30;99.90;;;;;;4977246;28;20027;-78
2024/01/03 01:49:42;;;;;;;25.23;3.25;;;10.30;99.90;;;;;;4978907;28;20030;-79
2024/01/03 01:52:13;;;;;;;29.70;4.07;;;10.30;99.90;;;;;;4977719;28;20137;-83
2024/01/03 01:54:41;;;;;;;26.90;3.20;;;10.40;99.90;;;;;;4977769;28;20484;-80
2024/01/03 01:57:08;;;;;;;22.63;3.60;;;10.40;99.90;;;;;;4961154;28;20061;-75
2024/01/03 01:59:35;;;;;;;29.17;3.97;;;10.40;99.90;;;;;;4943998;28;20044;-80
2024/01/03 02:02:03;;;;;;;29.08;3.75;;;10.40;99.90;;;;;;4978978;28;20037;-81
2024/01/03 02:04:33;;;;;;;27.83;4.07;;;10.40;99.90;;;;;;4963764;28;20243;-81
2024/01/03 02:06:59;;;;;;;27.40;3.53;;;10.40;99.90;;;;;;4962469;28;20030;-81
2024/01/03 02:09:26;;;;;;;22.60;4.32;;;10.40;99.90;;;;;;4960077;28;20501;-77
2024/01/03 02:11:52;;;;;;;25.25;4.07;;;10.40;99.90;;;;;;4995187;28;20042;-82
2024/01/03 02:14:18;;;;;;;26.95;3.00;;;10.40;99.90;;;;;;4945225;28;20038;-80
2024/01/03 02:16:44;;;;;;;31.63;5.00;;;10.40;99.90;;;;;;4962440;28;20049;-77
2024/01/03 02:19:11;;;;;;;29.25;3.83;;;10.40;99.90;;;;;;4995524;28;20041;-78
2024/01/03 02:21:37;;;;;;;27.58;3.80;;;10.40;99.90;;;;;;4976930;28;20500;-79
2024/01/03 02:24:05;;;;;;;26.92;3.85;;;10.50;99.90;;;;;;4979046;28;20134;-78
2024/01/03 02:26:31;;;;;;;23.63;3.65;;;10.40;99.90;;;;;;4978647;28;20046;-82
2024/01/03 02:28:57;;;;;;;23.77;3.40;;;10.40;99.90;;;;;;4961539;28;20034;-82
2024/01/03 02:31:24;;;;;;;28.02;4.22;;;10.40;99.90;;;;;;4976993;28;20511;-79
2024/01/03 02:33:50;;;;;;;22.63;3.40;;;10.40;99.90;;;;;;4959419;28;20030;-82
2024/01/03 02:36:16;;;;;;;25.95;3.05;;;10.40;99.90;;;;;;4961546;28;20038;-81
2024/01/03 02:38:46;;;;;;;32.38;3.20;;;10.40;99.90;;;;;;4960651;28;20504;-82
2024/01/03 02:41:13;;;;;;;27.95;3.75;;;10.50;99.90;;;;;;4959979;28;20496;-82
2024/01/03 02:43:39;;;;;;;26.30;4.22;;;10.40;99.90;;;;;;4975681;28;20034;-83
2024/01/03 02:46:05;;;;;;;23.52;3.10;;;10.50;99.90;;;;;;4976288;28;20026;-82
2024/01/03 02:48:32;;;;;;;28.55;3.53;;;10.40;99.90;;;;;;4979698;28;20026;-77
2024/01/03 02:50:58;;;;;;;22.27;3.03;;;10.50;99.90;;;;;;4979420;28;20042;-82
2024/01/03 02:53:24;;;;;;;29.55;4.82;;;10.50;99.90;;;;;;4981306;28;20484;-82
2024/01/03 02:55:51;;;;;;;24.52;4.22;;;10.50;99.90;;;;;;4964686;28;20038;-84
2024/01/03 02:58:17;;;;;;;25.67;3.42;;;10.50;99.90;;;;;;4981169;28;20033;-84
2024/01/03 03:00:44;;;;;;;28.67;3.95;;;10.50;99.90;;;;;;4979478;28;20034;-78
2024/01/03 03:03:10;;;;;;;24.63;3.90;;;10.50;99.90;;;;;;4948577;28;20046;-83
2024/01/03 03:05:36;;;;;;;25.85;4.10;;;10.50;99.90;;;;;;4948708;28;20113;-83
2024/01/03 03:08:04;;;;;;;25.50;3.92;;;10.40;99.90;;;;;;4966991;28;20500;-83
2024/01/03 03:10:30;;;;;;;24.73;3.63;;;10.50;99.90;;;;;;4947526;28;20046;-78
2024/01/03 03:12:57;;;;;;;25.20;3.67;;;10.40;99.90;;;;;;4980465;28;20039;-83
2024/01/03 03:15:23;;;;;;;27.13;4.70;;;10.50;99.90;;;;;;4964138;28;20902;-80
2024/01/03 03:17:49;;;;;;;35.05;4.90;;;10.50;99.90;;;;;;4981679;28;20654;-77
2024/01/03 03:20:15;;;;;;;31.25;3.30;;;10.50;99.90;;;;;;4981197;28;20045;-77
2024/01/03 03:22:42;;;;;;;28.90;4.65;;;10.50;99.90;;;;;;4983471;28;20047;-77
2024/01/03 03:25:08;;;;;;;24.48;3.33;;;10.50;99.90;;;;;;4970803;28;20038;-82
2024/01/03 03:27:34;;;;;;;30.58;3.97;;;10.40;99.90;;;;;;4966461;28;20038;-82
2024/01/03 03:30:02;;;;;;;25.80;3.80;;;10.40;99.90;;;;;;4965221;28;20787;-83
2024/01/03 03:32:28;;;;;;;29.17;3.30;;;10.40;99.90;;;;;;4964864;28;20042;-78
2024/01/03 03:34:55;;;;;;;19.17;3.05;;;10.40;99.90;;;;;;4963952;28;20038;-79
2024/01/03 03:37:22;;;;;;;34.80;4.82;;;10.40;99.90;;;;;;4982249;28;20493;-83
2024/01/03 03:39:48;;;;;;;31.08;4.03;;;10.40;99.90;;;;;;4981810;28;20026;-85
2024/01/03 03:42:15;;;;;;;27.38;3.40;;;10.40;99.90;;;;;;4981838;28;20030;-75
2024/01/03 03:44:41;;;;;;;32.70;4.38;;;10.40;99.90;;;;;;4963326;28;20026;-81
2024/01/03 03:47:07;;;;;;;32.60;3.92;;;10.40;99.90;;;;;;4978690;28;20045;-83
2024/01/03 03:49:34;;;;;;;32.95;4.63;;;10.40;99.90;;;;;;4946771;28;20124;-83
2024/01/03 03:52:00;;;;;;;26.20;3.92;;;10.30;99.90;;;;;;4982837;28;20395;-83
2024/01/03 03:54:26;;;;;;;24.38;3.25;;;10.30;99.90;;;;;;4980806;28;20033;-74
2024/01/03 03:56:53;;;;;;;27.20;3.70;;;10.30;99.90;;;;;;4980711;28;20034;-80
2024/01/03 03:59:19;;;;;;;26.13;3.30;;;10.30;99.90;;;;;;4981062;28;20041;-81
2024/01/03 04:01:52;;;;;;;34.40;4.40;;;10.30;99.90;;;;;;4979550;28;20315;-83
2024/01/03 04:04:18;;;;;;;;;;;10.30;99.90;;;;;;4979446;28;20042;-84
2024/01/03 04:06:44;;;;;;;34.60;5.47;;;10.30;99.90;;;;;;4981339;28;19918;-75
2024/01/03 04:09:11;;;;;;;32.42;3.47;;;10.30;99.90;;;;;;4980992;28;20042;-82
2024/01/03 04:11:42;;;;;;;32.83;4.70;;;10.30;99.90;;;;;;4964373;28;20042;-79
2024/01/03 04:14:08;;;;;;;36.67;5.32;;;10.30;99.90;;;;;;4979877;28;20046;-81
2024/01/03 04:16:35;;;;;;;36.25;4.65;;;10.30;99.90;;;;;;4960892;28;20041;-83
2024/01/03 04:19:02;;;;;;;34.55;4.07;;;10.20;99.90;;;;;;4979719;28;20509;-83
2024/01/03 04:21:30;;;;;;;27.38;3.17;;;10.20;99.90;;;;;;4964428;28;20350;-84
2024/01/03 04:23:57;;;;;;;33.17;5.68;;;10.20;99.90;;;;;;4963597;28;20038;-84
2024/01/03 04:26:23;;;;;;;38.85;5.07;;;10.10;99.90;;;;;;4963463;28;20049;-80
2024/01/03 04:28:50;;;;;;;24.38;3.47;;;10.10;99.90;;;;;;4968793;28;20507;-82
2024/01/03 04:31:16;;;;;;;33.45;4.00;;;10.10;99.90;;;;;;4980792;28;20029;-82
2024/01/03 04:33:42;;;;;;;31.42;3.85;;;10.10;99.90;;;;;;4981246;28;20030;-83
2024/01/03 04:36:11;;;;;;;33.67;4.38;;;10.10;99.90;;;;;;4981368;28;20362;-80
2024/01/03 04:38:37;;;;;;;31.98;3.97;;;10.20;99.90;;;;;;4947283;28;20597;-86
2024/01/03 04:41:04;;;;;;;33.08;3.97;;;10.20;99.90;;;;;;4979134;28;20057;-85
2024/01/03 04:43:31;;;;;;;29.88;3.70;;;10.20;99.90;;;;;;4982183;28;20042;-85
2024/01/03 04:45:57;;;;;;;28.60;3.45;;;10.20;99.90;;;;;;4964765;28;20030;-81
2024/01/03 04:48:23;;;;;;;35.10;5.10;;;10.30;99.90;;;;;;4981476;28;20039;-77
2024/01/03 04:50:50;;;;;;;29.05;4.43;;;10.30;99.90;;;;;;4964778;28;20501;-85
2024/01/03 04:53:16;;;;;;;27.85;4.88;;;10.30;99.90;;;;;;4979113;28;20026;-85
2024/01/03 04:55:42;;;;;;;34.38;5.93;;;10.30;99.90;;;;;;4980339;28;20050;-84
2024/01/03 04:58:09;;;;;;;38.47;5.40;;;10.30;99.90;;;;;;4966544;28;20045;-75
2024/01/03 05:00:36;;;;;;;27.75;4.35;;;10.40;99.90;;;;;;4963698;28;20042;-84
2024/01/03 05:03:03;;;;;;;24.70;3.55;;;10.30;99.90;;;;;;4980999;28;20050;-80
2024/01/03 05:05:29;;;;;;;31.50;4.70;;;10.40;99.90;;;;;;4963645;28;20034;-85
2024/01/03 05:07:56;;;;;;;29.63;4.57;;;10.30;99.90;;;;;;4979242;28;20393;-82
2024/01/03 05:10:22;;;;;;;35.30;5.20;;;10.30;99.90;;;;;;4982323;28;20069;-84
2024/01/03 05:12:49;;;;;;;27.80;4.78;;;10.20;99.90;;;;;;4979601;28;20037;-86
2024/01/03 05:15:15;;;;;;;32.17;5.20;;;10.20;99.90;;;;;;4962692;28;20525;-82
2024/01/03 05:17:41;;;;;;;28.30;5.00;;;10.20;99.90;;;;;;4966113;28;20046;-85
2024/01/03 05:20:08;;;;;;;24.40;4.55;;;10.10;99.90;;;;;;4970380;28;20038;-80
2024/01/03 05:22:35;;;;;;;27.90;5.22;;;10.10;99.90;;;;;;4965299;28;20375;-84
2024/01/03 05:25:01;;;;;;;26.73;5.65;;;10.10;99.90;;;;;;4981330;28;20049;-83
2024/01/03 05:27:28;;;;;;;28.55;5.32;;;10.00;99.90;;;;;;4979157;28;20030;-84
2024/01/03 05:29:54;;;;;;;26.02;5.85;;;10.00;99.90;;;;;;4980655;28;20457;-82
2024/01/03 05:32:20;;;;;;;26.80;5.40;;;9.90;99.90;;;;;;4947781;28;20042;-85
2024/01/03 05:34:47;;;;;;;27.17;5.88;;;9.90;99.90;;;;;;4962012;28;20057;-83
2024/01/03 05:37:13;;;;;;;28.92;6.18;;;9.90;99.90;;;;;;4979402;28;20026;-85
2024/01/03 05:39:40;;;;;;;31.52;4.03;;;9.90;99.90;;;;;;4979256;28;20515;-84
2024/01/03 05:42:07;;;;;;;29.88;4.72;;;9.90;99.90;;;;;;4979375;28;20030;-82
2024/01/03 05:44:33;;;;;;;22.63;4.22;;;9.90;99.90;;;;;;4978319;28;20504;-83
2024/01/03 05:47:00;;;;;;;24.95;4.22;;;10.00;99.90;;;;;;4977162;28;20034;-85
2024/01/03 05:49:27;;;;;;;22.25;4.22;;;10.00;99.90;;;;;;4963399;28;20042;-75
2024/01/03 05:51:53;;;;;;;23.48;3.50;;;10.00;99.90;;;;;;4961393;28;20045;-82
2024/01/03 05:54:20;;;;;;;25.77;4.47;;;10.00;99.90;;;;;;4978390;28;20041;-81
2024/01/03 05:56:46;;;;;;;31.50;4.32;;;9.90;99.90;;;;;;4977998;28;20061;-83
2024/01/03 05:59:13;;;;;;;17.52;3.47;;;9.90;99.90;;;;;;4979527;28;20030;-79
2024/01/03 06:01:39;;;;;;;27.02;3.63;;;9.90;99.90;;;;;;4977887;28;20035;-79
2024/01/03 06:04:06;;;;;;;22.73;3.85;;;9.90;99.90;;;;;;4962125;28;20046;-83
2024/01/03 06:06:32;;;;;;;21.58;3.83;;;9.80;99.90;;;;;;4978945;28;20030;-81
2024/01/03 06:08:58;;;;;;;28.95;4.72;;;9.80;99.90;;;;;;4980971;28;20606;-81
2024/01/03 06:11:24;;;;;;;23.83;3.47;;;9.80;99.90;;;;;;4978975;28;20034;-83
2024/01/03 06:13:51;;;;;;;17.23;2.85;;;9.80;99.90;;;;;;4961704;28;20034;-81
2024/01/03 06:16:17;;;;;;;18.98;3.17;;;9.70;99.90;;;;;;4978115;28;20038;-83
2024/01/03 06:18:44;;;;;;;18.45;3.13;;;9.80;99.90;;;;;;4962106;28;20496;-83
2024/01/03 06:21:11;;;;;;;15.77;3.22;;;9.80;99.90;;;;;;4977276;28;20473;-80
2024/01/03 06:23:39;;;;;;;15.98;2.85;;;9.80;99.90;;;;;;4962618;28;20061;-78
2024/01/03 06:26:06;;;;;;;11.88;2.63;;;9.80;99.90;;;;;;4976305;28;20529;-82
2024/01/03 06:28:33;;;;;;;14.10;2.47;;;9.80;99.90;;;;;;4960996;28;20481;-84
2024/01/03 06:31:02;;;;;;;15.45;2.85;;;9.80;99.90;;;;;;4977504;28;20034;-82
2024/01/03 06:33:28;;;;;;;15.77;2.38;;;9.90;99.90;;;;;;4978187;28;20040;-82
2024/01/03 06:35:54;;;;;;;11.57;2.17;;;9.90;99.90;;;;;;4978360;28;20041;-83
2024/01/03 06:38:21;;;;;;;8.43;1.40;;;9.90;99.90;;;;;;4977206;28;20046;-79
2024/01/03 06:40:48;;;;;;;9.68;1.85;;;9.90;99.90;;;;;;4978512;28;20041;-82
2024/01/03 06:43:15;;;;;;;11.82;2.00;;;9.90;99.90;;;;;;4962303;28;20050;-84
2024/01/03 06:45:41;;;;;;;12.63;1.80;;;9.90;99.90;;;;;;4978330;28;20030;-84
2024/01/03 06:48:07;;;;;;;11.98;2.00;;;9.90;99.90;;;;;;4978462;28;20041;-80
2024/01/03 06:50:34;;;;;;;13.23;2.65;;;9.90;99.90;;;;;;4946524;28;20065;-83
2024/01/03 06:53:00;;;;;;;5.63;1.45;;;9.90;99.90;;;;;;4977179;28;20026;-81
2024/01/03 06:55:26;;;;;;;12.23;1.70;;;9.90;99.90;;;;;;4976433;28;20031;-81
2024/01/03 06:57:53;;;;;;;10.63;2.15;;;10.00;99.90;;;;;;4976764;28;20038;-81
2024/01/03 07:00:20;;;;;;;9.45;1.27;;;9.90;99.90;;;;;;4946809;28;20043;-84
2024/01/03 07:02:47;;;;;;;7.60;1.38;;;10.00;99.90;;;;;;4979713;28;20034;-81
2024/01/03 07:05:13;;;;;;;6.88;1.25;;;10.00;99.90;;;;;;4962176;28;20034;-84
2024/01/03 07:07:39;;;;;;;8.15;0.98;;;10.00;99.90;;;;;;4980734;28;20033;-82
2024/01/03 07:10:06;;;;;;;8.80;0.85;;;10.00;99.90;;;;;;4977336;28;20038;-82
2024/01/03 07:12:32;;;;;;;8.40;1.60;;;10.00;99.90;;;;;;4982035;28;20038;-84
2024/01/03 07:14:59;;;;;;;8.32;0.88;;;9.90;99.90;;;;;;4983228;28;20041;-85
2024/01/03 07:17:33;;;;;;;5.95;1.05;;;9.90;99.90;;;;;;4960705;28;20041;-80
2024/01/03 07:19:59;;;;;;;5.88;1.05;;;9.90;99.90;;;;;;4979967;28;20043;-84
2024/01/03 07:22:26;;;;;;;6.70;0.75;;;9.90;99.90;;;;;;4960453;28;20061;-85
2024/01/03 07:24:52;;;;;;;5.85;1.00;;;9.90;99.90;;;;;;4976606;28;20046;-78
2024/01/03 07:27:18;;;;;;;3.75;0.60;;;9.80;99.90;;;;;;4960138;28;20062;-77
2024/01/03 07:29:48;;;;;;;4.32;0.80;;;9.80;99.90;;;;;;4992404;28;20045;-81
2024/01/03 07:32:14;;;;;;;4.45;0.82;;;9.80;99.90;;;;;;4945706;28;20041;-84
2024/01/03 07:34:41;;;;;;;3.70;0.50;;;9.70;99.90;;;;;;4978812;28;20535;-79
2024/01/03 07:37:07;;;;;;;2.92;0.43;;;9.60;99.90;;;;;;4980435;28;20385;-81
2024/01/03 07:39:33;;;;;;;4.22;0.50;;;9.60;99.90;;;;;;4980061;28;20394;-81
2024/01/03 07:41:59;;;;;;;2.72;0.50;;;9.50;99.90;;;;;;4963382;28;20038;-79
2024/01/03 07:44:26;;;;;;;2.90;0.40;;;9.40;99.90;;;;;;4980105;28;20370;-81
2024/01/03 07:46:53;;;;;;;2.08;0.40;;;9.40;99.90;;;;;;4995478;28;20027;-79
2024/01/03 07:49:19;;;;;;;4.15;0.40;;;9.30;99.90;;;;;;4979968;28;20959;-81
2024/01/03 07:51:49;;;;;;;2.38;0.40;;;9.30;99.90;;;;;;4980232;28;20030;-80
2024/01/03 07:54:15;;;;;;;5.90;0.60;;;9.30;99.90;;;;;;4981918;28;20054;-80
2024/01/03 07:56:41;;;;;;;3.60;0.45;;;9.30;99.90;;;;;;4964080;28;20046;-80
2024/01/03 07:59:08;;;;;;;3.65;0.43;;;9.20;99.90;;;;;;4979545;28;20030;-80
2024/01/03 08:01:36;;;;;;;1.77;0.30;;;9.20;99.90;;;;;;4979626;28;20038;-79
2024/01/03 08:04:04;;;;;;;1.98;0.35;;;9.20;99.90;;;;;;4978981;28;20520;-80
2024/01/03 08:06:31;;;;;;;3.30;0.40;;;9.20;99.90;;;;;;4979119;28;20030;-80
2024/01/03 08:08:57;;;;;;;3.00;0.38;;;9.10;99.90;;;;;;4977586;28;20030;-78
2024/01/03 08:11:23;;;;;;;3.80;0.30;;;9.10;99.90;;;;;;4962503;28;20686;-80
2024/01/03 08:13:50;;;;;;;3.28;0.43;;;9.10;99.90;;;;;;4996763;28;20038;-77
2024/01/03 08:16:16;;;;;;;4.45;0.40;;;9.10;99.90;;;;;;4964502;28;20456;-78
2024/01/03 08:18:44;;;;;;;1.67;0.30;;;9.10;99.90;;;;;;4980235;28;20374;-79
2024/01/03 08:21:10;;;;;;;4.07;0.50;;;9.10;99.90;;;;;;4978227;28;20482;-80
2024/01/03 08:23:37;;;;;;;4.70;0.40;;;9.10;99.90;;;;;;4978567;28;20034;-79
2024/01/03 08:26:10;;;;;;;4.07;0.57;;;9.20;99.90;;;;;;4961714;28;20049;-80
2024/01/03 08:28:41;;;;;;;8.07;0.77;;;9.10;99.90;;;;;;4961270;28;20042;-79
2024/01/03 08:31:18;;;;;;;4.57;0.50;;;9.20;99.90;;;;;;4963519;28;20030;-78
2024/01/03 08:33:46;;;;;;;3.72;0.57;;;9.20;99.90;;;;;;4961434;28;20478;-80
2024/01/03 08:36:13;;;;;;;7.60;0.63;;;9.20;99.90;;;;;;4964076;28;20061;-80
2024/01/03 08:38:40;;;;;;;5.75;0.80;;;9.20;99.90;;;;;;4980076;28;20488;-79
2024/01/03 08:41:17;;;;;;;4.95;0.73;;;9.30;99.90;;;;;;4945881;28;20061;-75
2024/01/03 08:43:45;;;;;;;4.97;0.63;;;9.30;99.90;;;;;;4963924;28;20065;-78
2024/01/03 08:46:11;;;;;;;10.30;0.60;;;9.30;99.90;;;;;;4978365;28;20069;-78
2024/01/03 08:48:40;;;;;;;8.27;1.63;;;9.30;99.90;;;;;;4979443;28;20039;-79
2024/01/03 08:51:13;;;;;;;7.07;1.13;;;9.30;99.90;;;;;;4978090;28;20042;-80
2024/01/03 08:53:40;;;;;;;6.22;1.85;;;9.30;99.90;;;;;;4964152;28;20060;-81
2024/01/03 08:56:14;;;;;;;8.20;1.80;;;9.30;99.90;;;;;;4979353;28;20554;-77
2024/01/03 08:58:41;;;;;;;8.75;2.05;;;9.40;99.90;;;;;;4980847;28;20498;-80
2024/01/03 09:01:08;;;;;;;11.02;2.42;;;9.40;99.90;;;;;;4963297;28;20038;-79
2024/01/03 09:03:36;;;;;;;9.68;2.55;;;9.40;99.90;;;;;;4978690;28;20470;-76
2024/01/03 09:06:04;;;;;;;12.05;2.45;;;9.40;99.90;;;;;;4948234;28;20416;-81
2024/01/03 09:08:31;;;;;;;10.52;3.13;;;9.40;99.90;;;;;;4982408;28;20038;-80
2024/01/03 09:10:58;;;;;;;9.93;3.17;;;9.40;99.90;;;;;;4979900;28;20033;-79
2024/01/03 09:13:25;;;;;;;8.90;3.10;;;9.40;99.90;;;;;;4961686;28;20759;-76
2024/01/03 09:15:52;;;;;;;12.55;3.92;;;9.40;99.90;;;;;;4992648;28;20026;-80
2024/01/03 09:18:18;;;;;;;11.68;3.75;;;9.40;99.90;;;;;;4995689;28;20042;-78
2024/01/03 09:20:44;;;;;;;7.70;2.38;;;9.40;99.90;;;;;;4978268;28;20046;-80
2024/01/03 09:23:11;;;;;;;7.82;3.13;;;9.40;99.90;;;;;;4978795;28;20037;-81
2024/01/03 09:25:37;;;;;;;10.40;3.20;;;9.40;99.90;;;;;;4978662;28;20046;-80
2024/01/03 09:28:04;;;;;;;8.57;2.78;;;9.50;99.90;;;;;;4977487;28;20042;-82
2024/01/03 09:30:30;;;;;;;8.55;2.40;;;9.50;99.90;;;;;;4978089;28;20029;-79
2024/01/03 09:32:56;;;;;;;11.27;3.33;;;9.50;99.90;;;;;;4963012;28;20043;-80
2024/01/03 09:35:23;;;;;;;14.20;4.18;;;9.50;99.90;;;;;;4961506;28;20061;-80
2024/01/03 09:37:49;;;;;;;13.38;3.58;;;9.60;99.90;;;;;;4960874;28;20634;-80
2024/01/03 09:40:15;;;;;;;12.23;3.78;;;9.60;99.90;;;;;;4961158;28;20038;-78
2024/01/03 09:42:42;;;;;;;14.23;4.18;;;9.70;99.90;;;;;;4977213;28;20031;-80
2024/01/03 09:45:09;;;;;;;12.95;4.32;;;9.60;99.90;;;;;;4976957;28;20038;-77
2024/01/03 09:47:35;;;;;;;12.10;3.28;;;9.60;99.90;;;;;;4946405;28;20500;-79
2024/01/03 09:50:01;;;;;;;17.60;3.85;;;9.60;99.90;;;;;;4960092;28;20029;-81
2024/01/03 09:52:28;;;;;;;10.50;2.67;;;9.60;99.90;;;;;;4977708;28;20045;-75
2024/01/03 09:54:54;;;;;;;13.20;3.40;;;9.60;99.90;;;;;;4979290;28;20034;-79
2024/01/03 09:57:22;;;;;;;20.35;3.50;;;9.60;99.90;;;;;;4977557;28;20035;-79
2024/01/03 09:59:49;;;;;;;12.05;3.47;;;9.70;99.90;;;;;;4961894;28;20497;-74
2024/01/03 10:02:15;;;;;;;11.40;2.35;;;9.70;99.90;;;;;;4959871;28;20026;-81
2024/01/03 10:04:45;;;;;;;12.57;2.55;;;9.70;99.90;;;;;;4976897;28;20053;-80
2024/01/03 10:07:11;;;;;;;13.50;2.97;;;9.80;99.90;;;;;;4979409;28;20049;-78
2024/01/03 10:09:45;;;;;;;17.77;2.63;;;9.80;99.90;;;;;;4993514;28;20034;-80
2024/01/03 10:12:17;;;;;;;14.25;2.50;;;9.80;99.90;;;;;;4976554;28;20477;-79
2024/01/03 10:14:44;;;;;;;15.77;2.35;;;9.80;99.90;;;;;;4962375;28;20401;-81
2024/01/03 10:17:11;;;;;;;22.05;3.05;;;9.70;99.90;;;;;;4960714;28;20042;-79
2024/01/03 10:19:37;;;;;;;15.50;3.13;;;9.70;99.90;;;;;;4961946;28;20362;-79
2024/01/03 10:22:04;;;;;;;19.10;2.53;;;9.70;99.90;;;;;;4962681;28;20046;-81
2024/01/03 10:24:33;;;;;;;14.82;2.70;;;9.70;99.90;;;;;;4976200;28;20045;-76
2024/01/03 10:27:10;;;;;;;20.55;3.15;;;9.80;99.90;;;;;;4976957;28;20102;-82
2024/01/03 10:29:37;;;;;;;17.90;2.97;;;9.80;99.90;;;;;;4977284;28;20037;-81
2024/01/03 10:32:09;;;;;;;22.02;3.45;;;9.80;99.90;;;;;;4977248;28;20496;-81
2024/01/03 10:34:36;;;;;;;17.07;3.07;;;9.80;99.90;;;;;;4977418;28;20053;-77
2024/01/03 10:37:04;;;;;;;19.88;3.30;;;9.80;99.90;;;;;;4976379;28;20304;-81
2024/01/03 10:39:31;;;;;;;23.38;3.30;;;9.90;99.90;;;;;;4960405;28;20045;-83
2024/01/03 10:41:58;;;;;;;28.63;3.80;;;9.90;99.90;;;;;;4960265;28;20053;-80
2024/01/03 10:44:26;;;;;;;21.65;3.17;;;9.90;99.90;;;;;;4978460;28;20516;-80
2024/01/03 10:46:54;;;;;;;29.17;3.90;;;10.00;99.90;;;;;;4977607;28;20022;-81
2024/01/03 10:49:20;;;;;;;24.38;4.32;;;10.00;99.90;;;;;;4977735;28;20498;-82
2024/01/03 10:51:55;;;;;;;24.45;3.75;;;10.10;99.90;;;;;;4976928;28;20034;-81
2024/01/03 10:54:24;;;;;;;27.75;3.83;;;10.20;99.90;;;;;;4993147;28;20026;-77
2024/01/03 10:56:51;;;;;;;29.05;3.80;;;10.40;99.90;;;;;;4960950;28;20030;-81
2024/01/03 10:59:21;;;;;;;26.02;4.03;;;10.50;99.90;;;;;;4961841;28;20080;-77
2024/01/03 11:01:57;;;;;;;25.25;3.90;;;10.50;99.90;;;;;;4961428;28;20034;-79
2024/01/03 11:05:05;;;;;;;27.55;4.47;;;10.60;99.90;;;;;;4965389;28;20042;-79
2024/01/03 11:07:44;;;;;;;25.45;4.68;;;10.60;99.90;;;;;;4960078;28;20038;-81
2024/01/03 11:10:32;;;;;;;24.98;4.78;;;10.70;99.90;;;;;;4980340;28;20034;-79
2024/01/03 11:12:58;;;;;;;29.83;4.93;;;10.60;99.90;;;;;;4963977;28;20037;-79
2024/01/03 11:15:25;;;;;;;27.20;4.60;;;10.50;99.90;;;;;;4980185;28;20487;-79
2024/01/03 11:17:51;;;;;;;30.05;5.90;;;10.50;99.90;;;;;;4980754;28;20034;-80
2024/01/03 11:20:28;;;;;;;30.77;5.75;;;10.40;99.90;;;;;;4979438;28;20041;-79
2024/01/03 11:22:55;;;;;;;29.27;4.93;;;10.40;99.90;;;;;;4966304;28;20042;-79
2024/01/03 11:25:51;;;;;;;23.27;3.90;;;10.30;99.90;;;;;;4979905;28;20046;-77
2024/01/03 11:28:36;;;;;;;27.38;4.18;;;10.40;99.90;;;;;;4978533;28;20042;-82
2024/01/03 11:31:02;;;;;;;28.17;4.50;;;10.40;99.90;;;;;;4964980;28;20042;-81
2024/01/03 11:33:31;;;;;;;22.17;3.70;;;10.60;99.90;;;;;;4962979;28;20050;-79
2024/01/03 11:35:58;;;;;;;26.77;4.13;;;10.60;99.90;;;;;;4978079;28;20045;-81
2024/01/03 11:38:41;;;;;;;33.17;3.90;;;10.60;99.90;;;;;;4947977;28;20561;-76
2024/01/03 11:41:08;;;;;;;;;;;10.60;99.90;;;;;;4961753;28;20022;-74
2024/01/03 11:43:35;;;;;;;29.65;4.57;;;10.60;99.90;;;;;;4980040;28;19918;-80
2024/01/03 11:46:11;;;;;;;28.17;4.57;;;10.60;99.90;;;;;;4978208;28;20034;-77
2024/01/03 11:48:38;;;;;;;22.58;3.10;;;10.60;99.90;;;;;;4980931;28;20786;-79
2024/01/03 11:51:24;;;;;;;26.27;4.05;;;10.60;99.90;;;;;;4970693;28;20035;-80
2024/01/03 11:53:51;;;;;;;29.55;3.88;;;10.60;99.90;;;;;;4996618;28;20034;-80
2024/01/03 11:56:31;;;;;;;26.75;4.07;;;10.60;99.90;;;;;;4979309;28;20049;-80
2024/01/03 11:58:58;;;;;;;28.55;4.50;;;10.60;99.90;;;;;;4978865;28;20053;-77
2024/01/03 12:01:24;;;;;;;28.98;5.00;;;10.60;99.90;;;;;;4964593;28;20049;-79
2024/01/03 12:04:10;;;;;;;34.47;6.28;;;10.60;99.90;;;;;;4980289;28;20417;-79
2024/01/03 12:06:36;;;;;;;31.25;4.40;;;10.60;99.90;;;;;;4996579;28;20503;-79
2024/01/03 12:09:04;;;;;;;30.40;5.43;;;10.60;99.90;;;;;;4980816;28;20046;-78
2024/01/03 12:11:33;;;;;;;30.77;4.80;;;10.70;99.90;;;;;;4979115;28;20046;-79
2024/01/03 12:13:59;;;;;;;28.42;3.88;;;10.80;99.90;;;;;;4968330;28;20025;-77
2024/01/03 12:16:26;;;;;;;26.33;4.85;;;10.80;99.90;;;;;;4986069;28;20041;-79
2024/01/03 12:18:53;;;;;;;30.75;5.10;;;10.80;99.90;;;;;;4978609;28;20112;-80
2024/01/03 12:21:19;;;;;;;25.65;4.38;;;10.80;99.90;;;;;;4981544;28;20057;-80
2024/01/03 12:23:59;;;;;;;33.28;5.75;;;10.90;99.90;;;;;;4961753;28;20034;-79
2024/01/03 12:26:26;;;;;;;29.00;4.60;;;10.90;99.90;;;;;;4979200;28;20053;-81
2024/01/03 12:29:03;;;;;;;34.30;5.93;;;11.00;99.90;;;;;;4963361;28;20490;-79
2024/01/03 12:31:29;;;;;;;29.77;4.50;;;11.00;99.90;;;;;;4995627;28;20027;-80
2024/01/03 12:34:05;;;;;;;26.38;4.30;;;11.00;99.90;;;;;;4947269;28;20026;-81
2024/01/03 12:36:32;;;;;;;25.25;4.32;;;10.90;99.90;;;;;;4978640;28;20038;-80
2024/01/03 12:38:59;;;;;;;19.77;3.55;;;10.80;99.90;;;;;;4978325;28;20035;-77
2024/01/03 12:41:26;;;;;;;22.30;3.92;;;10.70;99.90;;;;;;4959614;28;20046;-81
2024/01/03 12:43:54;;;;;;;16.05;3.42;;;10.70;99.90;;;;;;4946037;28;20399;-81
2024/01/03 12:46:20;;;;;;;26.67;3.88;;;10.70;99.90;;;;;;4975776;28;20046;-80